sensor_id;sensor_type;location;lat;lon;timestamp;temperature;humidity
19000;DHT22;9633;50.980;13.850;2022-08-03T00:00:40;17.90;99.90
19000;DHT22;9633;50.980;13.850;2022-08-03T00:02:13;17.80;99.90
19000;DHT22;9633;50.980;13.850;2022-08-03T00:03:47;17.80;99.90
19000;DHT22;9633;50.980;13.850;2022-08-03T00:05:21;17.70;99.90
19000;DHT22;9633;50.980;13.850;2022-08-03T00:06:54;17.60;99.90
19000;DHT22;9633;50.980;13.850;2022-08-03T00:08:27;17.70;99.90
19000;DHT22;9633;50.980;13.850;2022-08-03T00:10:00;17.60;99.90
19000;DHT22;9633;50.980;13.850;2022-08-03T00:11:34;17.60;99.90
19000;DHT22;9633;50.980;13.850;2022-08-03T00:13:07;17.60;99.90
19000;DHT22;9633;50.980;13.850;2022-08-03T00:14:43;17.60;99.90
19000;DHT22;9633;50.980;13.850;2022-08-03T00:16:17;17.50;99.90
19000;DHT22;9633;50.980;13.850;2022-08-03T00:17:53;17.50;99.90
19000;DHT22;9633;50.980;13.850;2022-08-03T00:19:27;17.40;99.90
19000;DHT22;9633;50.980;13.850;2022-08-03T00:21:02;17.40;99.90
19000;DHT22;9633;50.980;13.850;2022-08-03T00:22:36;17.40;99.90
19000;DHT22;9633;50.980;13.850;2022-08-03T00:24:09;17.30;99.90
19000;DHT22;9633;50.980;13.850;2022-08-03T00:25:42;17.30;99.90
19000;DHT22;9633;50.980;13.850;2022-08-03T00:27:15;17.30;99.90
19000;DHT22;9633;50.980;13.850;2022-08-03T00:28:49;17.30;99.90
19000;DHT22;9633;50.980;13.850;2022-08-03T00:30:23;17.40;99.90
19000;DHT22;9633;50.980;13.850;2022-08-03T00:32:01;17.30;99.90
19000;DHT22;9633;50.980;13.850;2022-08-03T00:33:35;17.30;99.90
19000;DHT22;9633;50.980;13.850;2022-08-03T00:35:28;17.40;99.90
19000;DHT22;9633;50.980;13.850;2022-08-03T00:37:22;17.40;99.90
19000;DHT22;9633;50.980;13.850;2022-08-03T00:39:12;17.40;99.90
19000;DHT22;9633;50.980;13.850;2022-08-03T00:40:46;17.50;99.90
19000;DHT22;9633;50.980;13.850;2022-08-03T00:42:19;17.50;99.90
19000;DHT22;9633;50.980;13.850;2022-08-03T00:43:59;17.50;99.90
19000;DHT22;9633;50.980;13.850;2022-08-03T00:45:34;17.40;99.90
19000;DHT22;9633;50.980;13.850;2022-08-03T00:47:08;17.40;99.90
19000;DHT22;9633;50.980;13.850;2022-08-03T00:48:41;17.40;99.90
19000;DHT22;9633;50.980;13.850;2022-08-03T00:50:16;17.40;99.90
19000;DHT22;9633;50.980;13.850;2022-08-03T00:51:50;17.30;99.90
19000;DHT22;9633;50.980;13.850;2022-08-03T00:53:24;17.40;99.90
19000;DHT22;9633;50.980;13.850;2022-08-03T00:54:59;17.30;99.90
19000;DHT22;9633;50.980;13.850;2022-08-03T00:56:32;17.20;99.90
19000;DHT22;9633;50.980;13.850;2022-08-03T00:58:06;17.20;99.90
19000;DHT22;9633;50.980;13.850;2022-08-03T00:59:39;17.20;99.90
19000;DHT22;9633;50.980;13.850;2022-08-03T01:01:13;17.20;99.90
19000;DHT22;9633;50.980;13.850;2022-08-03T01:02:48;17.20;99.90
19000;DHT22;9633;50.980;13.850;2022-08-03T01:04:22;17.20;99.90
19000;DHT22;9633;50.980;13.850;2022-08-03T01:06:03;17.10;99.90
19000;DHT22;9633;50.980;13.850;2022-08-03T01:07:45;17.10;99.90
19000;DHT22;9633;50.980;13.850;2022-08-03T01:09:31;17.10;99.90
19000;DHT22;9633;50.980;13.850;2022-08-03T01:11:14;17.10;99.90
19000;DHT22;9633;50.980;13.850;2022-08-03T01:12:56;17.00;99.90
19000;DHT22;9633;50.980;13.850;2022-08-03T01:14:33;17.00;99.90
19000;DHT22;9633;50.980;13.850;2022-08-03T01:16:14;17.00;99.90
19000;DHT22;9633;50.980;13.850;2022-08-03T01:17:54;16.90;99.90
19000;DHT22;9633;50.980;13.850;2022-08-03T01:19:40;16.90;99.90
19000;DHT22;9633;50.980;13.850;2022-08-03T01:21:19;16.90;99.90
19000;DHT22;9633;50.980;13.850;2022-08-03T01:23:05;16.90;99.90
19000;DHT22;9633;50.980;13.850;2022-08-03T01:24:52;16.90;99.90
19000;DHT22;9633;50.980;13.850;2022-08-03T01:26:46;16.90;99.90
19000;DHT22;9633;50.980;13.850;2022-08-03T01:28:44;16.90;99.90
19000;DHT22;9633;50.980;13.850;2022-08-03T01:30:22;16.90;99.90
19000;DHT22;9633;50.980;13.850;2022-08-03T01:32:01;17.00;99.90
19000;DHT22;9633;50.980;13.850;2022-08-03T01:33:58;17.00;99.90
19000;DHT22;9633;50.980;13.850;2022-08-03T01:35:35;17.00;99.90
19000;DHT22;9633;50.980;13.850;2022-08-03T01:37:11;17.00;99.90
19000;DHT22;9633;50.980;13.850;2022-08-03T01:38:51;16.90;99.90
19000;DHT22;9633;50.980;13.850;2022-08-03T01:40:27;17.00;99.90
19000;DHT22;9633;50.980;13.850;2022-08-03T01:42:03;17.00;99.90
19000;DHT22;9633;50.980;13.850;2022-08-03T01:43:39;17.00;99.90
19000;DHT22;9633;50.980;13.850;2022-08-03T01:45:36;17.00;99.90
19000;DHT22;9633;50.980;13.850;2022-08-03T01:47:10;17.00;99.90
19000;DHT22;9633;50.980;13.850;2022-08-03T01:48:46;16.90;99.90
19000;DHT22;9633;50.980;13.850;2022-08-03T01:50:22;17.00;99.90
19000;DHT22;9633;50.980;13.850;2022-08-03T01:51:58;17.00;99.90
19000;DHT22;9633;50.980;13.850;2022-08-03T01:53:36;17.00;99.90
19000;DHT22;9633;50.980;13.850;2022-08-03T01:55:12;17.10;99.90
19000;DHT22;9633;50.980;13.850;2022-08-03T01:56:48;17.00;99.90
19000;DHT22;9633;50.980;13.850;2022-08-03T01:58:24;17.00;99.90
19000;DHT22;9633;50.980;13.850;2022-08-03T02:00:00;17.00;99.90
19000;DHT22;9633;50.980;13.850;2022-08-03T02:01:44;16.80;99.90
19000;DHT22;9633;50.980;13.850;2022-08-03T02:03:40;16.80;99.90
19000;DHT22;9633;50.980;13.850;2022-08-03T02:05:32;16.70;99.90
19000;DHT22;9633;50.980;13.850;2022-08-03T02:07:06;16.60;99.90
19000;DHT22;9633;50.980;13.850;2022-08-03T02:08:41;16.60;99.90
19000;DHT22;9633;50.980;13.850;2022-08-03T02:10:18;16.50;99.90
19000;DHT22;9633;50.980;13.850;2022-08-03T02:12:08;16.50;99.90
19000;DHT22;9633;50.980;13.850;2022-08-03T02:13:43;16.40;99.90
19000;DHT22;9633;50.980;13.850;2022-08-03T02:15:17;16.30;99.90
19000;DHT22;9633;50.980;13.850;2022-08-03T02:16:53;16.30;99.90
19000;DHT22;9633;50.980;13.850;2022-08-03T02:18:28;16.20;99.90
19000;DHT22;9633;50.980;13.850;2022-08-03T02:20:04;16.20;99.90
19000;DHT22;9633;50.980;13.850;2022-08-03T02:21:37;16.20;99.90
19000;DHT22;9633;50.980;13.850;2022-08-03T02:23:31;16.10;99.90
19000;DHT22;9633;50.980;13.850;2022-08-03T02:25:07;16.00;99.90
19000;DHT22;9633;50.980;13.850;2022-08-03T02:26:42;15.90;99.90
19000;DHT22;9633;50.980;13.850;2022-08-03T02:28:18;15.90;99.90
19000;DHT22;9633;50.980;13.850;2022-08-03T02:29:55;15.80;99.90
19000;DHT22;9633;50.980;13.850;2022-08-03T02:31:33;15.80;99.90
19000;DHT22;9633;50.980;13.850;2022-08-03T02:33:20;15.80;99.90
19000;DHT22;9633;50.980;13.850;2022-08-03T02:34:57;15.80;99.90
19000;DHT22;9633;50.980;13.850;2022-08-03T02:36:34;15.70;99.90
19000;DHT22;9633;50.980;13.850;2022-08-03T02:38:10;15.70;99.90
19000;DHT22;9633;50.980;13.850;2022-08-03T02:39:46;15.70;99.90
19000;DHT22;9633;50.980;13.850;2022-08-03T02:41:22;15.70;99.90
19000;DHT22;9633;50.980;13.850;2022-08-03T02:43:01;15.60;99.90
19000;DHT22;9633;50.980;13.850;2022-08-03T02:44:36;15.60;99.90
19000;DHT22;9633;50.980;13.850;2022-08-03T02:46:12;15.50;99.90
19000;DHT22;9633;50.980;13.850;2022-08-03T02:47:48;15.50;99.90
19000;DHT22;9633;50.980;13.850;2022-08-03T02:49:27;15.40;99.90
19000;DHT22;9633;50.980;13.850;2022-08-03T02:51:22;15.40;99.90
19000;DHT22;9633;50.980;13.850;2022-08-03T02:52:57;15.50;99.90
19000;DHT22;9633;50.980;13.850;2022-08-03T02:54:33;15.50;99.90
19000;DHT22;9633;50.980;13.850;2022-08-03T02:56:07;15.50;99.90
19000;DHT22;9633;50.980;13.850;2022-08-03T02:57:42;15.60;99.90
19000;DHT22;9633;50.980;13.850;2022-08-03T02:59:17;15.50;99.90
19000;DHT22;9633;50.980;13.850;2022-08-03T03:00:52;15.50;99.90
19000;DHT22;9633;50.980;13.850;2022-08-03T03:02:27;15.50;99.90
19000;DHT22;9633;50.980;13.850;2022-08-03T03:04:01;15.50;99.90
19000;DHT22;9633;50.980;13.850;2022-08-03T03:05:36;15.50;99.90
19000;DHT22;9633;50.980;13.850;2022-08-03T03:07:25;15.60;99.90
19000;DHT22;9633;50.980;13.850;2022-08-03T03:09:02;15.60;99.90
19000;DHT22;9633;50.980;13.850;2022-08-03T03:10:36;15.60;99.90
19000;DHT22;9633;50.980;13.850;2022-08-03T03:12:12;15.70;99.90
19000;DHT22;9633;50.980;13.850;2022-08-03T03:13:48;15.70;99.90
19000;DHT22;9633;50.980;13.850;2022-08-03T03:15:22;15.80;99.90
19000;DHT22;9633;50.980;13.850;2022-08-03T03:16:57;15.90;99.90
19000;DHT22;9633;50.980;13.850;2022-08-03T03:18:30;15.90;99.90
19000;DHT22;9633;50.980;13.850;2022-08-03T03:20:07;15.90;99.90
19000;DHT22;9633;50.980;13.850;2022-08-03T03:21:42;16.00;99.90
19000;DHT22;9633;50.980;13.850;2022-08-03T03:23:16;16.00;99.90
19000;DHT22;9633;50.980;13.850;2022-08-03T03:24:51;16.10;99.90
19000;DHT22;9633;50.980;13.850;2022-08-03T03:26:26;16.10;99.90
19000;DHT22;9633;50.980;13.850;2022-08-03T03:28:00;16.10;99.90
19000;DHT22;9633;50.980;13.850;2022-08-03T03:29:34;16.00;99.90
19000;DHT22;9633;50.980;13.850;2022-08-03T03:31:10;15.90;99.90
19000;DHT22;9633;50.980;13.850;2022-08-03T03:32:44;15.80;99.90
19000;DHT22;9633;50.980;13.850;2022-08-03T03:34:17;15.70;99.90
19000;DHT22;9633;50.980;13.850;2022-08-03T03:35:52;15.60;99.90
19000;DHT22;9633;50.980;13.850;2022-08-03T03:37:27;15.50;99.90
19000;DHT22;9633;50.980;13.850;2022-08-03T03:39:01;15.50;99.90
19000;DHT22;9633;50.980;13.850;2022-08-03T03:40:48;15.40;99.90
19000;DHT22;9633;50.980;13.850;2022-08-03T03:42:22;15.40;99.90
19000;DHT22;9633;50.980;13.850;2022-08-03T03:43:55;15.30;99.90
19000;DHT22;9633;50.980;13.850;2022-08-03T03:45:30;15.40;99.90
19000;DHT22;9633;50.980;13.850;2022-08-03T03:47:02;15.30;99.90
19000;DHT22;9633;50.980;13.850;2022-08-03T03:48:36;15.30;99.90
19000;DHT22;9633;50.980;13.850;2022-08-03T03:50:11;15.30;99.90
19000;DHT22;9633;50.980;13.850;2022-08-03T03:51:46;15.40;99.90
19000;DHT22;9633;50.980;13.850;2022-08-03T03:53:21;15.40;99.90
19000;DHT22;9633;50.980;13.850;2022-08-03T03:54:55;15.40;99.90
19000;DHT22;9633;50.980;13.850;2022-08-03T03:56:32;15.40;99.90
19000;DHT22;9633;50.980;13.850;2022-08-03T03:58:06;15.40;99.90
19000;DHT22;9633;50.980;13.850;2022-08-03T03:59:40;15.40;99.90
19000;DHT22;9633;50.980;13.850;2022-08-03T04:01:14;15.50;99.90
19000;DHT22;9633;50.980;13.850;2022-08-03T04:02:48;15.60;99.90
19000;DHT22;9633;50.980;13.850;2022-08-03T04:04:21;15.80;99.90
19000;DHT22;9633;50.980;13.850;2022-08-03T04:06:12;15.90;99.90
19000;DHT22;9633;50.980;13.850;2022-08-03T04:08:07;16.00;99.90
19000;DHT22;9633;50.980;13.850;2022-08-03T04:10:00;16.10;99.90
19000;DHT22;9633;50.980;13.850;2022-08-03T04:11:53;16.20;99.90
19000;DHT22;9633;50.980;13.850;2022-08-03T04:13:29;16.20;99.90
19000;DHT22;9633;50.980;13.850;2022-08-03T04:15:05;16.20;99.90
19000;DHT22;9633;50.980;13.850;2022-08-03T04:16:47;16.30;99.90
19000;DHT22;9633;50.980;13.850;2022-08-03T04:18:22;16.40;99.90
19000;DHT22;9633;50.980;13.850;2022-08-03T04:19:54;16.50;99.90
19000;DHT22;9633;50.980;13.850;2022-08-03T04:21:29;16.50;99.90
19000;DHT22;9633;50.980;13.850;2022-08-03T04:23:05;16.60;99.90
19000;DHT22;9633;50.980;13.850;2022-08-03T04:24:48;16.70;99.90
19000;DHT22;9633;50.980;13.850;2022-08-03T04:26:27;16.70;99.90
19000;DHT22;9633;50.980;13.850;2022-08-03T04:28:03;16.80;99.90
19000;DHT22;9633;50.980;13.850;2022-08-03T04:29:58;16.90;99.90
19000;DHT22;9633;50.980;13.850;2022-08-03T04:31:34;17.00;99.90
19000;DHT22;9633;50.980;13.850;2022-08-03T04:33:09;17.10;99.90
19000;DHT22;9633;50.980;13.850;2022-08-03T04:34:43;17.10;99.90
19000;DHT22;9633;50.980;13.850;2022-08-03T04:36:19;17.20;99.90
19000;DHT22;9633;50.980;13.850;2022-08-03T04:37:54;17.30;99.90
19000;DHT22;9633;50.980;13.850;2022-08-03T04:39:30;17.40;99.90
19000;DHT22;9633;50.980;13.850;2022-08-03T04:41:06;17.50;99.90
19000;DHT22;9633;50.980;13.850;2022-08-03T04:42:42;17.60;99.90
19000;DHT22;9633;50.980;13.850;2022-08-03T04:44:16;17.70;99.90
19000;DHT22;9633;50.980;13.850;2022-08-03T04:45:50;17.80;99.90
19000;DHT22;9633;50.980;13.850;2022-08-03T04:47:24;17.90;99.90
19000;DHT22;9633;50.980;13.850;2022-08-03T04:48:58;18.00;99.90
19000;DHT22;9633;50.980;13.850;2022-08-03T04:50:32;18.10;99.90
19000;DHT22;9633;50.980;13.850;2022-08-03T04:52:09;18.20;99.90
19000;DHT22;9633;50.980;13.850;2022-08-03T04:53:43;18.30;99.90
19000;DHT22;9633;50.980;13.850;2022-08-03T04:55:24;18.40;99.90
19000;DHT22;9633;50.980;13.850;2022-08-03T04:56:58;18.50;99.90
19000;DHT22;9633;50.980;13.850;2022-08-03T04:58:34;18.60;99.90
19000;DHT22;9633;50.980;13.850;2022-08-03T05:00:08;18.70;99.90
19000;DHT22;9633;50.980;13.850;2022-08-03T05:01:42;18.90;99.90
19000;DHT22;9633;50.980;13.850;2022-08-03T05:03:16;18.90;99.90
19000;DHT22;9633;50.980;13.850;2022-08-03T05:04:56;19.00;99.90
19000;DHT22;9633;50.980;13.850;2022-08-03T05:06:29;19.10;99.90
19000;DHT22;9633;50.980;13.850;2022-08-03T05:08:02;19.20;99.90
19000;DHT22;9633;50.980;13.850;2022-08-03T05:09:42;19.30;99.90
19000;DHT22;9633;50.980;13.850;2022-08-03T05:11:23;19.40;99.90
19000;DHT22;9633;50.980;13.850;2022-08-03T05:12:57;19.50;99.90
19000;DHT22;9633;50.980;13.850;2022-08-03T05:14:31;19.50;99.90
19000;DHT22;9633;50.980;13.850;2022-08-03T05:16:05;19.60;99.90
19000;DHT22;9633;50.980;13.850;2022-08-03T05:17:38;19.60;99.90
19000;DHT22;9633;50.980;13.850;2022-08-03T05:19:11;19.70;99.90
19000;DHT22;9633;50.980;13.850;2022-08-03T05:20:45;19.70;99.90
19000;DHT22;9633;50.980;13.850;2022-08-03T05:22:18;19.90;99.90
19000;DHT22;9633;50.980;13.850;2022-08-03T05:23:51;19.90;99.90
19000;DHT22;9633;50.980;13.850;2022-08-03T05:25:25;20.00;99.90
19000;DHT22;9633;50.980;13.850;2022-08-03T05:26:58;20.10;99.90
19000;DHT22;9633;50.980;13.850;2022-08-03T05:28:31;20.20;99.90
19000;DHT22;9633;50.980;13.850;2022-08-03T05:30:07;20.30;99.90
19000;DHT22;9633;50.980;13.850;2022-08-03T05:32:00;20.40;99.90
19000;DHT22;9633;50.980;13.850;2022-08-03T05:33:39;20.40;99.90
19000;DHT22;9633;50.980;13.850;2022-08-03T05:35:12;20.50;99.90
19000;DHT22;9633;50.980;13.850;2022-08-03T05:37:06;20.60;99.90
19000;DHT22;9633;50.980;13.850;2022-08-03T05:38:40;20.70;99.90
19000;DHT22;9633;50.980;13.850;2022-08-03T05:40:13;20.80;99.90
19000;DHT22;9633;50.980;13.850;2022-08-03T05:41:47;20.90;99.90
19000;DHT22;9633;50.980;13.850;2022-08-03T05:43:20;21.00;99.90
19000;DHT22;9633;50.980;13.850;2022-08-03T05:44:53;21.10;99.90
19000;DHT22;9633;50.980;13.850;2022-08-03T05:46:28;21.20;99.90
19000;DHT22;9633;50.980;13.850;2022-08-03T05:48:01;21.40;99.90
19000;DHT22;9633;50.980;13.850;2022-08-03T05:49:34;21.50;99.90
19000;DHT22;9633;50.980;13.850;2022-08-03T05:51:07;21.70;93.30
19000;DHT22;9633;50.980;13.850;2022-08-03T05:52:43;22.30;57.80
19000;DHT22;9633;50.980;13.850;2022-08-03T05:54:16;23.80;17.30
19000;DHT22;9633;50.980;13.850;2022-08-03T05:55:49;25.50;5.10
19000;DHT22;9633;50.980;13.850;2022-08-03T05:57:28;26.90;50.40
19000;DHT22;9633;50.980;13.850;2022-08-03T05:59:02;28.00;57.80
19000;DHT22;9633;50.980;13.850;2022-08-03T06:00:55;29.00;79.50
19000;DHT22;9633;50.980;13.850;2022-08-03T06:02:30;29.40;76.20
19000;DHT22;9633;50.980;13.850;2022-08-03T06:04:03;31.00;66.80
19000;DHT22;9633;50.980;13.850;2022-08-03T06:05:37;32.00;66.30
19000;DHT22;9633;50.980;13.850;2022-08-03T06:07:26;31.90;71.40
19000;DHT22;9633;50.980;13.850;2022-08-03T06:08:59;33.00;75.80
19000;DHT22;9633;50.980;13.850;2022-08-03T06:10:33;33.20;74.20
19000;DHT22;9633;50.980;13.850;2022-08-03T06:12:09;33.00;72.30
19000;DHT22;9633;50.980;13.850;2022-08-03T06:13:45;33.00;70.70
19000;DHT22;9633;50.980;13.850;2022-08-03T06:15:18;33.10;72.70
19000;DHT22;9633;50.980;13.850;2022-08-03T06:16:51;32.90;73.40
19000;DHT22;9633;50.980;13.850;2022-08-03T06:18:27;33.20;70.50
19000;DHT22;9633;50.980;13.850;2022-08-03T06:20:00;33.00;70.80
19000;DHT22;9633;50.980;13.850;2022-08-03T06:21:33;33.20;70.00
19000;DHT22;9633;50.980;13.850;2022-08-03T06:23:10;34.10;62.80
19000;DHT22;9633;50.980;13.850;2022-08-03T06:24:49;34.20;63.20
19000;DHT22;9633;50.980;13.850;2022-08-03T06:26:26;34.50;65.90
19000;DHT22;9633;50.980;13.850;2022-08-03T06:28:00;34.60;61.90
19000;DHT22;9633;50.980;13.850;2022-08-03T06:29:32;35.00;62.10
19000;DHT22;9633;50.980;13.850;2022-08-03T06:31:08;34.80;62.00
19000;DHT22;9633;50.980;13.850;2022-08-03T06:32:41;34.80;65.20
19000;DHT22;9633;50.980;13.850;2022-08-03T06:34:24;34.50;62.60
19000;DHT22;9633;50.980;13.850;2022-08-03T06:36:06;34.80;63.50
19000;DHT22;9633;50.980;13.850;2022-08-03T06:37:43;35.20;62.30
19000;DHT22;9633;50.980;13.850;2022-08-03T06:39:16;34.90;59.80
19000;DHT22;9633;50.980;13.850;2022-08-03T06:40:50;35.30;58.40
19000;DHT22;9633;50.980;13.850;2022-08-03T06:42:24;35.70;59.10
19000;DHT22;9633;50.980;13.850;2022-08-03T06:43:58;35.40;58.00
19000;DHT22;9633;50.980;13.850;2022-08-03T06:45:35;35.70;58.30
19000;DHT22;9633;50.980;13.850;2022-08-03T06:47:08;36.00;58.30
19000;DHT22;9633;50.980;13.850;2022-08-03T06:48:42;35.90;57.90
19000;DHT22;9633;50.980;13.850;2022-08-03T06:50:17;35.30;55.70
19000;DHT22;9633;50.980;13.850;2022-08-03T06:51:57;35.10;55.30
19000;DHT22;9633;50.980;13.850;2022-08-03T06:53:37;35.40;56.30
19000;DHT22;9633;50.980;13.850;2022-08-03T06:55:11;35.50;55.20
19000;DHT22;9633;50.980;13.850;2022-08-03T06:56:44;35.70;55.90
19000;DHT22;9633;50.980;13.850;2022-08-03T06:58:17;36.20;55.20
19000;DHT22;9633;50.980;13.850;2022-08-03T06:59:51;36.20;54.50
19000;DHT22;9633;50.980;13.850;2022-08-03T07:01:42;36.10;54.40
19000;DHT22;9633;50.980;13.850;2022-08-03T07:03:15;36.60;55.90
19000;DHT22;9633;50.980;13.850;2022-08-03T07:04:49;36.70;55.70
19000;DHT22;9633;50.980;13.850;2022-08-03T07:06:24;36.90;53.70
19000;DHT22;9633;50.980;13.850;2022-08-03T07:07:57;36.20;54.10
19000;DHT22;9633;50.980;13.850;2022-08-03T07:09:32;35.50;53.60
19000;DHT22;9633;50.980;13.850;2022-08-03T07:11:06;35.90;54.00
19000;DHT22;9633;50.980;13.850;2022-08-03T07:12:40;35.70;54.50
19000;DHT22;9633;50.980;13.850;2022-08-03T07:14:27;37.10;53.20
19000;DHT22;9633;50.980;13.850;2022-08-03T07:16:02;37.30;52.20
19000;DHT22;9633;50.980;13.850;2022-08-03T07:17:35;37.60;53.10
19000;DHT22;9633;50.980;13.850;2022-08-03T07:19:08;37.50;51.40
19000;DHT22;9633;50.980;13.850;2022-08-03T07:20:42;37.80;51.60
19000;DHT22;9633;50.980;13.850;2022-08-03T07:22:17;38.10;50.90
19000;DHT22;9633;50.980;13.850;2022-08-03T07:23:50;38.00;49.90
19000;DHT22;9633;50.980;13.850;2022-08-03T07:25:24;36.80;50.50
19000;DHT22;9633;50.980;13.850;2022-08-03T07:26:57;36.70;50.90
19000;DHT22;9633;50.980;13.850;2022-08-03T07:28:30;37.50;51.70
19000;DHT22;9633;50.980;13.850;2022-08-03T07:30:06;38.30;49.60
19000;DHT22;9633;50.980;13.850;2022-08-03T07:31:40;38.40;49.70
19000;DHT22;9633;50.980;13.850;2022-08-03T07:33:14;38.50;49.90
19000;DHT22;9633;50.980;13.850;2022-08-03T07:34:47;38.10;48.40
19000;DHT22;9633;50.980;13.850;2022-08-03T07:36:21;37.90;48.30
19000;DHT22;9633;50.980;13.850;2022-08-03T07:37:56;37.50;49.20
19000;DHT22;9633;50.980;13.850;2022-08-03T07:39:30;38.50;49.80
19000;DHT22;9633;50.980;13.850;2022-08-03T07:41:03;39.50;49.00
19000;DHT22;9633;50.980;13.850;2022-08-03T07:42:37;39.50;48.70
19000;DHT22;9633;50.980;13.850;2022-08-03T07:44:10;39.80;47.60
19000;DHT22;9633;50.980;13.850;2022-08-03T07:45:44;39.30;48.00
19000;DHT22;9633;50.980;13.850;2022-08-03T07:47:18;39.40;46.70
19000;DHT22;9633;50.980;13.850;2022-08-03T07:48:53;39.00;45.50
19000;DHT22;9633;50.980;13.850;2022-08-03T07:50:27;38.50;44.70
19000;DHT22;9633;50.980;13.850;2022-08-03T07:52:00;39.10;46.90
19000;DHT22;9633;50.980;13.850;2022-08-03T07:53:52;38.30;47.30
19000;DHT22;9633;50.980;13.850;2022-08-03T07:55:28;39.20;47.10
19000;DHT22;9633;50.980;13.850;2022-08-03T07:57:02;39.20;47.10
19000;DHT22;9633;50.980;13.850;2022-08-03T07:58:36;38.10;46.60
19000;DHT22;9633;50.980;13.850;2022-08-03T08:00:13;37.30;46.70
19000;DHT22;9633;50.980;13.850;2022-08-03T08:01:46;37.80;47.70
19000;DHT22;9633;50.980;13.850;2022-08-03T08:03:21;37.50;46.50
19000;DHT22;9633;50.980;13.850;2022-08-03T08:04:54;35.70;45.70
19000;DHT22;9633;50.980;13.850;2022-08-03T08:06:27;34.40;47.80
19000;DHT22;9633;50.980;13.850;2022-08-03T08:08:04;36.20;47.90
19000;DHT22;9633;50.980;13.850;2022-08-03T08:09:39;37.50;47.90
19000;DHT22;9633;50.980;13.850;2022-08-03T08:11:12;38.00;48.00
19000;DHT22;9633;50.980;13.850;2022-08-03T08:12:46;38.20;46.60
19000;DHT22;9633;50.980;13.850;2022-08-03T08:14:19;38.60;46.20
19000;DHT22;9633;50.980;13.850;2022-08-03T08:15:53;38.90;46.90
19000;DHT22;9633;50.980;13.850;2022-08-03T08:17:26;38.40;45.40
19000;DHT22;9633;50.980;13.850;2022-08-03T08:19:00;38.60;46.30
19000;DHT22;9633;50.980;13.850;2022-08-03T08:20:35;39.20;45.80
19000;DHT22;9633;50.980;13.850;2022-08-03T08:22:13;38.70;45.00
19000;DHT22;9633;50.980;13.850;2022-08-03T08:23:47;39.10;45.50
19000;DHT22;9633;50.980;13.850;2022-08-03T08:25:31;39.00;44.90
19000;DHT22;9633;50.980;13.850;2022-08-03T08:27:04;38.40;45.00
19000;DHT22;9633;50.980;13.850;2022-08-03T08:28:39;38.10;45.50
19000;DHT22;9633;50.980;13.850;2022-08-03T08:30:15;37.40;43.80
19000;DHT22;9633;50.980;13.850;2022-08-03T08:31:50;37.10;44.70
19000;DHT22;9633;50.980;13.850;2022-08-03T08:33:23;36.40;44.30
19000;DHT22;9633;50.980;13.850;2022-08-03T08:35:18;36.60;45.30
19000;DHT22;9633;50.980;13.850;2022-08-03T08:36:51;37.20;46.00
19000;DHT22;9633;50.980;13.850;2022-08-03T08:38:25;36.70;45.40
19000;DHT22;9633;50.980;13.850;2022-08-03T08:39:59;34.00;45.80
19000;DHT22;9633;50.980;13.850;2022-08-03T08:41:34;33.90;47.00
19000;DHT22;9633;50.980;13.850;2022-08-03T08:43:07;34.60;46.10
19000;DHT22;9633;50.980;13.850;2022-08-03T08:44:40;34.00;46.20
19000;DHT22;9633;50.980;13.850;2022-08-03T08:46:15;33.80;47.50
19000;DHT22;9633;50.980;13.850;2022-08-03T08:47:56;33.90;45.60
19000;DHT22;9633;50.980;13.850;2022-08-03T08:49:35;33.30;46.50
19000;DHT22;9633;50.980;13.850;2022-08-03T08:51:11;32.90;47.10
19000;DHT22;9633;50.980;13.850;2022-08-03T08:52:47;33.60;45.20
19000;DHT22;9633;50.980;13.850;2022-08-03T08:54:22;33.60;45.50
19000;DHT22;9633;50.980;13.850;2022-08-03T08:55:58;34.50;46.70
19000;DHT22;9633;50.980;13.850;2022-08-03T08:57:40;35.70;45.10
19000;DHT22;9633;50.980;13.850;2022-08-03T08:59:16;34.70;44.60
19000;DHT22;9633;50.980;13.850;2022-08-03T09:00:50;34.90;45.70
19000;DHT22;9633;50.980;13.850;2022-08-03T09:02:25;35.20;44.70
19000;DHT22;9633;50.980;13.850;2022-08-03T09:04:03;33.50;44.20
19000;DHT22;9633;50.980;13.850;2022-08-03T09:05:41;33.20;44.00
19000;DHT22;9633;50.980;13.850;2022-08-03T09:07:28;33.70;46.00
19000;DHT22;9633;50.980;13.850;2022-08-03T09:09:02;33.70;45.00
19000;DHT22;9633;50.980;13.850;2022-08-03T09:10:35;33.80;43.50
19000;DHT22;9633;50.980;13.850;2022-08-03T09:12:09;33.70;44.10
19000;DHT22;9633;50.980;13.850;2022-08-03T09:14:04;33.60;43.20
19000;DHT22;9633;50.980;13.850;2022-08-03T09:15:38;34.80;43.30
19000;DHT22;9633;50.980;13.850;2022-08-03T09:17:39;36.00;43.90
19000;DHT22;9633;50.980;13.850;2022-08-03T09:19:13;35.90;43.40
19000;DHT22;9633;50.980;13.850;2022-08-03T09:20:46;35.20;43.30
19000;DHT22;9633;50.980;13.850;2022-08-03T09:22:20;34.90;42.80
19000;DHT22;9633;50.980;13.850;2022-08-03T09:23:54;34.90;42.90
19000;DHT22;9633;50.980;13.850;2022-08-03T09:25:40;33.60;42.50
19000;DHT22;9633;50.980;13.850;2022-08-03T09:27:14;33.40;45.20
19000;DHT22;9633;50.980;13.850;2022-08-03T09:28:59;33.80;44.10
19000;DHT22;9633;50.980;13.850;2022-08-03T09:30:44;33.40;43.50
19000;DHT22;9633;50.980;13.850;2022-08-03T09:32:19;34.10;44.70
19000;DHT22;9633;50.980;13.850;2022-08-03T09:33:53;33.80;43.90
19000;DHT22;9633;50.980;13.850;2022-08-03T09:35:31;34.20;43.90
19000;DHT22;9633;50.980;13.850;2022-08-03T09:37:25;35.80;43.30
19000;DHT22;9633;50.980;13.850;2022-08-03T09:39:20;36.50;44.20
19000;DHT22;9633;50.980;13.850;2022-08-03T09:41:17;37.30;44.70
19000;DHT22;9633;50.980;13.850;2022-08-03T09:42:55;39.10;43.90
19000;DHT22;9633;50.980;13.850;2022-08-03T09:44:33;38.40;42.90
19000;DHT22;9633;50.980;13.850;2022-08-03T09:46:09;37.30;42.10
19000;DHT22;9633;50.980;13.850;2022-08-03T09:47:43;37.80;41.60
19000;DHT22;9633;50.980;13.850;2022-08-03T09:49:16;37.90;40.70
19000;DHT22;9633;50.980;13.850;2022-08-03T09:50:52;37.90;40.70
19000;DHT22;9633;50.980;13.850;2022-08-03T09:52:31;38.70;40.20
19000;DHT22;9633;50.980;13.850;2022-08-03T09:54:26;39.10;39.60
19000;DHT22;9633;50.980;13.850;2022-08-03T09:56:01;39.50;40.60
19000;DHT22;9633;50.980;13.850;2022-08-03T09:58:04;39.20;40.10
19000;DHT22;9633;50.980;13.850;2022-08-03T09:59:38;39.50;40.80
19000;DHT22;9633;50.980;13.850;2022-08-03T10:01:13;39.80;40.90
19000;DHT22;9633;50.980;13.850;2022-08-03T10:03:03;39.40;40.70
19000;DHT22;9633;50.980;13.850;2022-08-03T10:04:46;39.20;38.90
19000;DHT22;9633;50.980;13.850;2022-08-03T10:06:21;39.10;39.00
19000;DHT22;9633;50.980;13.850;2022-08-03T10:08:00;39.00;40.00
19000;DHT22;9633;50.980;13.850;2022-08-03T10:09:54;39.00;40.90
19000;DHT22;9633;50.980;13.850;2022-08-03T10:11:29;39.60;41.40
19000;DHT22;9633;50.980;13.850;2022-08-03T10:13:15;39.70;41.90